UKKK/IEV METAR and TAF weather

Enter ICAO airport designator
Station Type Date Time Source
UKKK METAR 2021/05/15 00:30 UTC NOAA

UKKK 150030Z VRB01MPS CAVOK 13/10 Q1007 R08/CLRD70 NOSIG


Station Type Date Time Source
UKKK Decoded METAR 2021/05/15 00:30 UTC NOAA

Kyiv, Ukraine (UKKK) 50-24N 030-34E 167M
May 14, 2021 - 08:30 PM EDT / 2021.05.15 0030 UTC
Wind: Variable at 2 MPH (2 KT):0
Visibility: greater than 7 mile(s):0
Temperature: 55 F (13 C)
Dew Point: 50 F (10 C)
Relative Humidity: 81%
Pressure (altimeter): 29.74 in. Hg (1007 hPa)
ob: UKKK 150030Z VRB01MPS CAVOK 13/10 Q1007 R08/CLRD70 NOSIG
cycle: 0

Station Type Date Time Source
UKKK TAF 2021/05/14 18:15 UTC NOAA

TAF TAF UKKK 141707Z 1418/1518 20004G09MPS 9999 BKN025
TEMPO 1418/1424 VRB08G16MPS 2100 -TSRA SQ BKN007 BKN020CB
TEMPO 1500/1506 1000 -SHRA BR SCT006 SCT015CB PROB40
TEMPO 1500/1506 0400 FG VV002
BECMG 1506/1508 22006G11MPS
TEMPO 1508/1518 VRB09G17MPS 2100 -TSRA SQ BKN007 BKN020CB

Example: see airport list